sensor_id;sensor_type;location;lat;lon;timestamp;P1;durP1;ratioP1;P2;durP2;ratioP2
18893;SDS011;9579;49.488;8.226;2023-12-04T00:02:17;24.33;;;21.73;;
18893;SDS011;9579;49.488;8.226;2023-12-04T00:05:04;23.47;;;21.07;;
18893;SDS011;9579;49.488;8.226;2023-12-04T00:07:52;23.97;;;21.37;;
18893;SDS011;9579;49.488;8.226;2023-12-04T00:10:39;22.73;;;20.40;;
18893;SDS011;9579;49.488;8.226;2023-12-04T00:13:28;21.77;;;19.50;;
18893;SDS011;9579;49.488;8.226;2023-12-04T00:16:15;24.23;;;21.70;;
18893;SDS011;9579;49.488;8.226;2023-12-04T00:19:04;23.70;;;21.03;;
18893;SDS011;9579;49.488;8.226;2023-12-04T00:21:54;23.63;;;21.13;;
18893;SDS011;9579;49.488;8.226;2023-12-04T00:24:41;23.87;;;21.40;;
18893;SDS011;9579;49.488;8.226;2023-12-04T00:27:28;22.17;;;19.87;;
18893;SDS011;9579;49.488;8.226;2023-12-04T00:30:17;23.50;;;21.00;;
18893;SDS011;9579;49.488;8.226;2023-12-04T00:33:10;23.27;;;20.90;;
18893;SDS011;9579;49.488;8.226;2023-12-04T00:35:59;23.40;;;21.00;;
18893;SDS011;9579;49.488;8.226;2023-12-04T00:38:49;24.17;;;21.60;;
18893;SDS011;9579;49.488;8.226;2023-12-04T00:41:36;22.53;;;20.23;;
18893;SDS011;9579;49.488;8.226;2023-12-04T00:44:23;23.57;;;21.17;;
18893;SDS011;9579;49.488;8.226;2023-12-04T00:47:10;24.43;;;21.83;;
18893;SDS011;9579;49.488;8.226;2023-12-04T00:50:01;25.27;;;22.63;;
18893;SDS011;9579;49.488;8.226;2023-12-04T00:52:50;23.83;;;21.33;;
18893;SDS011;9579;49.488;8.226;2023-12-04T00:55:38;24.80;;;22.20;;
18893;SDS011;9579;49.488;8.226;2023-12-04T00:58:27;24.27;;;21.70;;
18893;SDS011;9579;49.488;8.226;2023-12-04T01:01:13;23.00;;;20.50;;
18893;SDS011;9579;49.488;8.226;2023-12-04T01:04:01;22.80;;;20.50;;
18893;SDS011;9579;49.488;8.226;2023-12-04T01:06:48;24.33;;;21.93;;
18893;SDS011;9579;49.488;8.226;2023-12-04T01:09:37;23.10;;;20.70;;
18893;SDS011;9579;49.488;8.226;2023-12-04T01:12:24;22.73;;;20.40;;
18893;SDS011;9579;49.488;8.226;2023-12-04T01:15:12;21.67;;;19.37;;
18893;SDS011;9579;49.488;8.226;2023-12-04T01:17:59;24.77;;;22.17;;
18893;SDS011;9579;49.488;8.226;2023-12-04T01:20:47;23.17;;;20.77;;
18893;SDS011;9579;49.488;8.226;2023-12-04T01:23:34;23.40;;;20.90;;
18893;SDS011;9579;49.488;8.226;2023-12-04T01:26:23;22.97;;;19.90;;
18893;SDS011;9579;49.488;8.226;2023-12-04T01:29:09;20.10;;;18.07;;
18893;SDS011;9579;49.488;8.226;2023-12-04T01:31:57;22.50;;;20.20;;
18893;SDS011;9579;49.488;8.226;2023-12-04T01:34:44;21.17;;;18.87;;
18893;SDS011;9579;49.488;8.226;2023-12-04T01:37:31;22.27;;;19.97;;
18893;SDS011;9579;49.488;8.226;2023-12-04T01:40:18;22.60;;;20.03;;
18893;SDS011;9579;49.488;8.226;2023-12-04T01:43:06;21.83;;;19.43;;
18893;SDS011;9579;49.488;8.226;2023-12-04T01:45:53;21.60;;;19.40;;
18893;SDS011;9579;49.488;8.226;2023-12-04T01:48:40;21.93;;;19.63;;
18893;SDS011;9579;49.488;8.226;2023-12-04T01:51:27;23.13;;;20.70;;
18893;SDS011;9579;49.488;8.226;2023-12-04T01:54:15;20.87;;;18.73;;
18893;SDS011;9579;49.488;8.226;2023-12-04T01:57:03;22.23;;;19.93;;
18893;SDS011;9579;49.488;8.226;2023-12-04T01:59:53;22.20;;;19.80;;
18893;SDS011;9579;49.488;8.226;2023-12-04T02:02:40;21.70;;;19.40;;
18893;SDS011;9579;49.488;8.226;2023-12-04T02:05:28;21.70;;;19.43;;
18893;SDS011;9579;49.488;8.226;2023-12-04T02:08:17;22.17;;;19.87;;
18893;SDS011;9579;49.488;8.226;2023-12-04T02:11:05;22.87;;;20.50;;
18893;SDS011;9579;49.488;8.226;2023-12-04T02:13:52;21.67;;;19.40;;
18893;SDS011;9579;49.488;8.226;2023-12-04T02:16:41;21.47;;;19.17;;
18893;SDS011;9579;49.488;8.226;2023-12-04T02:19:37;20.97;;;18.87;;
18893;SDS011;9579;49.488;8.226;2023-12-04T02:22:25;21.93;;;19.73;;
18893;SDS011;9579;49.488;8.226;2023-12-04T02:25:16;22.70;;;20.30;;
18893;SDS011;9579;49.488;8.226;2023-12-04T02:28:05;22.40;;;20.00;;
18893;SDS011;9579;49.488;8.226;2023-12-04T02:30:54;22.33;;;20.03;;
18893;SDS011;9579;49.488;8.226;2023-12-04T02:33:41;23.00;;;20.60;;
18893;SDS011;9579;49.488;8.226;2023-12-04T02:36:29;20.43;;;18.33;;
18893;SDS011;9579;49.488;8.226;2023-12-04T02:39:18;22.40;;;20.10;;
18893;SDS011;9579;49.488;8.226;2023-12-04T02:42:07;22.53;;;20.33;;
18893;SDS011;9579;49.488;8.226;2023-12-04T02:44:58;21.40;;;19.17;;
18893;SDS011;9579;49.488;8.226;2023-12-04T02:47:45;21.73;;;19.53;;
18893;SDS011;9579;49.488;8.226;2023-12-04T02:50:33;22.53;;;20.20;;
18893;SDS011;9579;49.488;8.226;2023-12-04T02:53:20;22.30;;;19.90;;
18893;SDS011;9579;49.488;8.226;2023-12-04T02:56:07;21.87;;;19.57;;
18893;SDS011;9579;49.488;8.226;2023-12-04T02:58:56;22.33;;;20.03;;
18893;SDS011;9579;49.488;8.226;2023-12-04T03:01:44;21.53;;;19.23;;
18893;SDS011;9579;49.488;8.226;2023-12-04T03:04:31;23.47;;;21.07;;
18893;SDS011;9579;49.488;8.226;2023-12-04T03:07:18;24.03;;;21.53;;
18893;SDS011;9579;49.488;8.226;2023-12-04T03:10:07;22.97;;;20.57;;
18893;SDS011;9579;49.488;8.226;2023-12-04T03:12:54;22.63;;;20.23;;
18893;SDS011;9579;49.488;8.226;2023-12-04T03:15:43;22.37;;;20.07;;
18893;SDS011;9579;49.488;8.226;2023-12-04T03:18:30;21.53;;;19.23;;
18893;SDS011;9579;49.488;8.226;2023-12-04T03:21:17;22.23;;;19.93;;
18893;SDS011;9579;49.488;8.226;2023-12-04T03:24:04;21.17;;;18.87;;
18893;SDS011;9579;49.488;8.226;2023-12-04T03:26:51;21.70;;;19.30;;
18893;SDS011;9579;49.488;8.226;2023-12-04T03:29:38;20.70;;;18.47;;
18893;SDS011;9579;49.488;8.226;2023-12-04T03:32:27;22.03;;;19.73;;
18893;SDS011;9579;49.488;8.226;2023-12-04T03:35:14;21.07;;;18.93;;
18893;SDS011;9579;49.488;8.226;2023-12-04T03:38:01;19.37;;;17.43;;
18893;SDS011;9579;49.488;8.226;2023-12-04T03:40:48;21.87;;;19.60;;
18893;SDS011;9579;49.488;8.226;2023-12-04T03:43:36;20.03;;;17.83;;
18893;SDS011;9579;49.488;8.226;2023-12-04T03:46:23;19.67;;;17.57;;
18893;SDS011;9579;49.488;8.226;2023-12-04T03:49:12;21.60;;;18.70;;
18893;SDS011;9579;49.488;8.226;2023-12-04T03:52:02;19.73;;;17.73;;
18893;SDS011;9579;49.488;8.226;2023-12-04T03:54:51;19.90;;;17.90;;
18893;SDS011;9579;49.488;8.226;2023-12-04T03:57:39;19.37;;;17.27;;
18893;SDS011;9579;49.488;8.226;2023-12-04T04:00:26;19.10;;;17.10;;
18893;SDS011;9579;49.488;8.226;2023-12-04T04:03:13;19.90;;;17.80;;
18893;SDS011;9579;49.488;8.226;2023-12-04T04:06:02;18.00;;;16.17;;
18893;SDS011;9579;49.488;8.226;2023-12-04T04:08:49;19.27;;;17.27;;
18893;SDS011;9579;49.488;8.226;2023-12-04T04:11:37;18.73;;;16.77;;
18893;SDS011;9579;49.488;8.226;2023-12-04T04:14:24;18.37;;;16.47;;
18893;SDS011;9579;49.488;8.226;2023-12-04T04:17:12;18.80;;;16.63;;
18893;SDS011;9579;49.488;8.226;2023-12-04T04:19:59;19.00;;;17.10;;
18893;SDS011;9579;49.488;8.226;2023-12-04T04:22:48;19.97;;;17.93;;
18893;SDS011;9579;49.488;8.226;2023-12-04T04:25:35;19.33;;;16.83;;
18893;SDS011;9579;49.488;8.226;2023-12-04T04:28:22;16.57;;;14.87;;
18893;SDS011;9579;49.488;8.226;2023-12-04T04:31:10;18.50;;;16.60;;
18893;SDS011;9579;49.488;8.226;2023-12-04T04:33:57;18.10;;;16.27;;
18893;SDS011;9579;49.488;8.226;2023-12-04T04:36:46;17.77;;;15.90;;
18893;SDS011;9579;49.488;8.226;2023-12-04T04:39:34;18.70;;;16.80;;
18893;SDS011;9579;49.488;8.226;2023-12-04T04:42:21;17.43;;;15.67;;
18893;SDS011;9579;49.488;8.226;2023-12-04T04:45:09;17.40;;;15.60;;
18893;SDS011;9579;49.488;8.226;2023-12-04T04:47:56;18.43;;;16.37;;
18893;SDS011;9579;49.488;8.226;2023-12-04T04:50:43;17.50;;;15.63;;
18893;SDS011;9579;49.488;8.226;2023-12-04T04:53:31;17.37;;;15.43;;
18893;SDS011;9579;49.488;8.226;2023-12-04T04:56:19;17.30;;;15.50;;
18893;SDS011;9579;49.488;8.226;2023-12-04T04:59:06;18.13;;;16.33;;
18893;SDS011;9579;49.488;8.226;2023-12-04T05:01:53;18.17;;;16.27;;
18893;SDS011;9579;49.488;8.226;2023-12-04T05:04:40;18.50;;;16.50;;
18893;SDS011;9579;49.488;8.226;2023-12-04T05:07:27;18.27;;;16.40;;
18893;SDS011;9579;49.488;8.226;2023-12-04T05:10:15;18.93;;;16.93;;
18893;SDS011;9579;49.488;8.226;2023-12-04T05:13:03;17.90;;;16.10;;
18893;SDS011;9579;49.488;8.226;2023-12-04T05:15:50;18.83;;;16.90;;
18893;SDS011;9579;49.488;8.226;2023-12-04T05:18:38;16.73;;;14.53;;
18893;SDS011;9579;49.488;8.226;2023-12-04T05:21:25;18.43;;;16.53;;
18893;SDS011;9579;49.488;8.226;2023-12-04T05:24:13;18.40;;;16.50;;
18893;SDS011;9579;49.488;8.226;2023-12-04T05:27:02;18.33;;;16.50;;
18893;SDS011;9579;49.488;8.226;2023-12-04T05:29:51;18.40;;;16.50;;
18893;SDS011;9579;49.488;8.226;2023-12-04T05:32:39;17.87;;;15.97;;
18893;SDS011;9579;49.488;8.226;2023-12-04T05:35:26;19.20;;;17.20;;
18893;SDS011;9579;49.488;8.226;2023-12-04T05:38:19;18.90;;;16.90;;
18893;SDS011;9579;49.488;8.226;2023-12-04T05:41:06;18.23;;;16.33;;
18893;SDS011;9579;49.488;8.226;2023-12-04T05:43:53;18.57;;;16.67;;
18893;SDS011;9579;49.488;8.226;2023-12-04T05:46:42;17.97;;;16.07;;
18893;SDS011;9579;49.488;8.226;2023-12-04T05:49:29;18.43;;;16.53;;
18893;SDS011;9579;49.488;8.226;2023-12-04T05:52:16;17.47;;;15.67;;
18893;SDS011;9579;49.488;8.226;2023-12-04T05:55:03;17.90;;;16.10;;
18893;SDS011;9579;49.488;8.226;2023-12-04T05:57:51;16.83;;;15.20;;
18893;SDS011;9579;49.488;8.226;2023-12-04T06:00:38;17.30;;;15.63;;
18893;SDS011;9579;49.488;8.226;2023-12-04T06:03:27;17.40;;;15.73;;
18893;SDS011;9579;49.488;8.226;2023-12-04T06:06:14;17.27;;;15.57;;
18893;SDS011;9579;49.488;8.226;2023-12-04T06:09:01;15.97;;;14.47;;
18893;SDS011;9579;49.488;8.226;2023-12-04T06:11:48;16.83;;;15.13;;
18893;SDS011;9579;49.488;8.226;2023-12-04T06:14:38;15.90;;;14.37;;
18893;SDS011;9579;49.488;8.226;2023-12-04T06:17:25;16.23;;;14.63;;
18893;SDS011;9579;49.488;8.226;2023-12-04T06:20:14;17.40;;;15.70;;
18893;SDS011;9579;49.488;8.226;2023-12-04T06:23:02;15.63;;;14.13;;
18893;SDS011;9579;49.488;8.226;2023-12-04T06:25:49;17.47;;;15.77;;
18893;SDS011;9579;49.488;8.226;2023-12-04T06:28:38;17.07;;;15.33;;
18893;SDS011;9579;49.488;8.226;2023-12-04T06:31:26;16.80;;;15.10;;
18893;SDS011;9579;49.488;8.226;2023-12-04T06:34:14;17.17;;;15.57;;
18893;SDS011;9579;49.488;8.226;2023-12-04T06:37:03;17.67;;;15.93;;
18893;SDS011;9579;49.488;8.226;2023-12-04T06:39:55;18.60;;;16.67;;
18893;SDS011;9579;49.488;8.226;2023-12-04T06:42:50;17.80;;;16.10;;
18893;SDS011;9579;49.488;8.226;2023-12-04T06:45:37;18.20;;;16.30;;
18893;SDS011;9579;49.488;8.226;2023-12-04T06:48:26;19.37;;;17.47;;
18893;SDS011;9579;49.488;8.226;2023-12-04T06:51:13;25.07;;;22.67;;
18893;SDS011;9579;49.488;8.226;2023-12-04T06:54:02;41.27;;;37.47;;
18893;SDS011;9579;49.488;8.226;2023-12-04T06:56:49;39.73;;;36.00;;
18893;SDS011;9579;49.488;8.226;2023-12-04T06:59:36;21.10;;;19.10;;
18893;SDS011;9579;49.488;8.226;2023-12-04T07:02:23;18.90;;;17.17;;
18893;SDS011;9579;49.488;8.226;2023-12-04T07:05:13;17.53;;;15.83;;
18893;SDS011;9579;49.488;8.226;2023-12-04T07:08:00;18.80;;;17.00;;
18893;SDS011;9579;49.488;8.226;2023-12-04T07:10:49;19.07;;;17.13;;
18893;SDS011;9579;49.488;8.226;2023-12-04T07:13:36;19.17;;;17.17;;
18893;SDS011;9579;49.488;8.226;2023-12-04T07:16:23;18.27;;;16.37;;
18893;SDS011;9579;49.488;8.226;2023-12-04T07:19:11;18.27;;;16.37;;
18893;SDS011;9579;49.488;8.226;2023-12-04T07:22:00;19.57;;;17.57;;
18893;SDS011;9579;49.488;8.226;2023-12-04T07:24:47;18.60;;;16.80;;
18893;SDS011;9579;49.488;8.226;2023-12-04T07:27:35;20.13;;;18.10;;
18893;SDS011;9579;49.488;8.226;2023-12-04T07:30:22;17.63;;;15.83;;
18893;SDS011;9579;49.488;8.226;2023-12-04T07:33:10;18.80;;;16.80;;
18893;SDS011;9579;49.488;8.226;2023-12-04T07:35:57;18.63;;;16.83;;
18893;SDS011;9579;49.488;8.226;2023-12-04T07:38:45;18.37;;;16.57;;
18893;SDS011;9579;49.488;8.226;2023-12-04T07:41:32;19.77;;;17.47;;
18893;SDS011;9579;49.488;8.226;2023-12-04T07:44:23;19.63;;;17.53;;
18893;SDS011;9579;49.488;8.226;2023-12-04T07:47:10;19.70;;;17.70;;
18893;SDS011;9579;49.488;8.226;2023-12-04T07:49:59;18.60;;;16.70;;
18893;SDS011;9579;49.488;8.226;2023-12-04T07:52:48;18.70;;;16.70;;
18893;SDS011;9579;49.488;8.226;2023-12-04T07:55:37;18.83;;;16.93;;
18893;SDS011;9579;49.488;8.226;2023-12-04T07:58:24;18.77;;;16.87;;
18893;SDS011;9579;49.488;8.226;2023-12-04T08:01:13;20.10;;;18.00;;
18893;SDS011;9579;49.488;8.226;2023-12-04T08:04:01;20.10;;;18.00;;
18893;SDS011;9579;49.488;8.226;2023-12-04T08:06:48;19.67;;;17.63;;
18893;SDS011;9579;49.488;8.226;2023-12-04T08:09:42;19.90;;;17.87;;
18893;SDS011;9579;49.488;8.226;2023-12-04T08:12:29;17.73;;;15.97;;
18893;SDS011;9579;49.488;8.226;2023-12-04T08:15:16;18.83;;;16.93;;
18893;SDS011;9579;49.488;8.226;2023-12-04T08:18:05;18.77;;;16.87;;
18893;SDS011;9579;49.488;8.226;2023-12-04T08:20:52;17.83;;;16.03;;
18893;SDS011;9579;49.488;8.226;2023-12-04T08:23:39;17.10;;;15.33;;
18893;SDS011;9579;49.488;8.226;2023-12-04T08:26:26;17.13;;;15.37;;
18893;SDS011;9579;49.488;8.226;2023-12-04T08:29:14;16.10;;;14.50;;
18893;SDS011;9579;49.488;8.226;2023-12-04T08:32:01;16.83;;;15.10;;
18893;SDS011;9579;49.488;8.226;2023-12-04T08:34:50;17.00;;;15.30;;
18893;SDS011;9579;49.488;8.226;2023-12-04T08:37:38;18.73;;;16.77;;
18893;SDS011;9579;49.488;8.226;2023-12-04T08:40:25;18.53;;;16.73;;
18893;SDS011;9579;49.488;8.226;2023-12-04T08:43:15;17.50;;;15.80;;
18893;SDS011;9579;49.488;8.226;2023-12-04T08:46:03;17.70;;;15.90;;
18893;SDS011;9579;49.488;8.226;2023-12-04T08:48:51;16.43;;;14.73;;
18893;SDS011;9579;49.488;8.226;2023-12-04T08:51:41;15.87;;;14.33;;
18893;SDS011;9579;49.488;8.226;2023-12-04T08:54:29;16.60;;;14.97;;
18893;SDS011;9579;49.488;8.226;2023-12-04T08:57:16;15.90;;;14.40;;
18893;SDS011;9579;49.488;8.226;2023-12-04T09:00:04;17.27;;;15.47;;
18893;SDS011;9579;49.488;8.226;2023-12-04T09:02:53;16.80;;;15.10;;
18893;SDS011;9579;49.488;8.226;2023-12-04T09:05:43;16.20;;;14.60;;
18893;SDS011;9579;49.488;8.226;2023-12-04T09:08:32;15.73;;;14.23;;
18893;SDS011;9579;49.488;8.226;2023-12-04T09:11:19;16.93;;;15.23;;
18893;SDS011;9579;49.488;8.226;2023-12-04T09:14:06;15.50;;;14.03;;
18893;SDS011;9579;49.488;8.226;2023-12-04T09:16:54;14.47;;;13.13;;
18893;SDS011;9579;49.488;8.226;2023-12-04T09:19:41;15.10;;;13.60;;
18893;SDS011;9579;49.488;8.226;2023-12-04T09:22:28;16.83;;;15.13;;
18893;SDS011;9579;49.488;8.226;2023-12-04T09:25:17;15.83;;;14.30;;
18893;SDS011;9579;49.488;8.226;2023-12-04T09:28:04;15.20;;;13.70;;
18893;SDS011;9579;49.488;8.226;2023-12-04T09:30:53;16.50;;;14.80;;
18893;SDS011;9579;49.488;8.226;2023-12-04T09:33:40;14.73;;;13.27;;
18893;SDS011;9579;49.488;8.226;2023-12-04T09:36:27;15.30;;;13.80;;
18893;SDS011;9579;49.488;8.226;2023-12-04T09:39:15;16.83;;;15.13;;
18893;SDS011;9579;49.488;8.226;2023-12-04T09:42:03;15.37;;;13.77;;
18893;SDS011;9579;49.488;8.226;2023-12-04T09:44:51;16.20;;;14.60;;
18893;SDS011;9579;49.488;8.226;2023-12-04T09:47:39;15.90;;;14.40;;
18893;SDS011;9579;49.488;8.226;2023-12-04T09:50:28;14.73;;;13.23;;
18893;SDS011;9579;49.488;8.226;2023-12-04T09:53:16;15.40;;;13.80;;
18893;SDS011;9579;49.488;8.226;2023-12-04T09:56:03;16.37;;;14.77;;
18893;SDS011;9579;49.488;8.226;2023-12-04T09:58:56;14.43;;;13.03;;
18893;SDS011;9579;49.488;8.226;2023-12-04T10:01:46;15.20;;;13.70;;
18893;SDS011;9579;49.488;8.226;2023-12-04T10:04:34;14.97;;;13.47;;
18893;SDS011;9579;49.488;8.226;2023-12-04T10:07:22;15.70;;;14.20;;
18893;SDS011;9579;49.488;8.226;2023-12-04T10:10:09;15.17;;;13.70;;
18893;SDS011;9579;49.488;8.226;2023-12-04T10:12:56;16.20;;;14.57;;
18893;SDS011;9579;49.488;8.226;2023-12-04T10:15:48;14.57;;;13.17;;
18893;SDS011;9579;49.488;8.226;2023-12-04T10:18:35;15.60;;;14.10;;
18893;SDS011;9579;49.488;8.226;2023-12-04T10:21:31;21.80;;;19.80;;
18893;SDS011;9579;49.488;8.226;2023-12-04T10:24:31;23.73;;;21.63;;
18893;SDS011;9579;49.488;8.226;2023-12-04T10:27:20;17.13;;;15.53;;
18893;SDS011;9579;49.488;8.226;2023-12-04T10:30:22;16.33;;;14.83;;
18893;SDS011;9579;49.488;8.226;2023-12-04T10:33:12;15.00;;;13.50;;
18893;SDS011;9579;49.488;8.226;2023-12-04T10:36:00;15.37;;;13.87;;
18893;SDS011;9579;49.488;8.226;2023-12-04T10:38:56;14.67;;;13.27;;
18893;SDS011;9579;49.488;8.226;2023-12-04T10:41:45;14.60;;;13.10;;
18893;SDS011;9579;49.488;8.226;2023-12-04T10:44:46;15.87;;;14.37;;
18893;SDS011;9579;49.488;8.226;2023-12-04T10:47:33;14.80;;;13.40;;
18893;SDS011;9579;49.488;8.226;2023-12-04T10:50:23;17.27;;;15.40;;
18893;SDS011;9579;49.488;8.226;2023-12-04T10:53:11;15.17;;;13.63;;
18893;SDS011;9579;49.488;8.226;2023-12-04T10:55:59;14.70;;;13.30;;
18893;SDS011;9579;49.488;8.226;2023-12-04T10:58:50;16.13;;;14.53;;
18893;SDS011;9579;49.488;8.226;2023-12-04T11:01:40;14.83;;;13.43;;
18893;SDS011;9579;49.488;8.226;2023-12-04T11:04:31;14.30;;;13.00;;
18893;SDS011;9579;49.488;8.226;2023-12-04T11:07:22;15.97;;;14.47;;
18893;SDS011;9579;49.488;8.226;2023-12-04T11:10:12;14.90;;;13.47;;
18893;SDS011;9579;49.488;8.226;2023-12-04T11:13:02;13.67;;;12.37;;
18893;SDS011;9579;49.488;8.226;2023-12-04T11:15:52;14.70;;;13.30;;
18893;SDS011;9579;49.488;8.226;2023-12-04T11:18:51;14.70;;;13.30;;
18893;SDS011;9579;49.488;8.226;2023-12-04T11:21:44;14.93;;;13.43;;
18893;SDS011;9579;49.488;8.226;2023-12-04T11:24:34;14.93;;;13.53;;
18893;SDS011;9579;49.488;8.226;2023-12-04T11:27:22;14.43;;;13.07;;
18893;SDS011;9579;49.488;8.226;2023-12-04T11:30:11;14.13;;;12.77;;
18893;SDS011;9579;49.488;8.226;2023-12-04T11:32:59;15.37;;;13.77;;
18893;SDS011;9579;49.488;8.226;2023-12-04T11:35:49;15.30;;;13.80;;
18893;SDS011;9579;49.488;8.226;2023-12-04T11:38:37;15.00;;;13.60;;
18893;SDS011;9579;49.488;8.226;2023-12-04T11:41:31;15.50;;;13.93;;
18893;SDS011;9579;49.488;8.226;2023-12-04T11:44:19;15.23;;;13.73;;
18893;SDS011;9579;49.488;8.226;2023-12-04T11:47:06;15.53;;;14.13;;
18893;SDS011;9579;49.488;8.226;2023-12-04T11:49:53;14.50;;;13.10;;
18893;SDS011;9579;49.488;8.226;2023-12-04T11:52:41;14.97;;;13.57;;
18893;SDS011;9579;49.488;8.226;2023-12-04T11:55:28;15.17;;;13.77;;
18893;SDS011;9579;49.488;8.226;2023-12-04T11:58:17;15.93;;;14.43;;
18893;SDS011;9579;49.488;8.226;2023-12-04T12:01:04;15.20;;;13.70;;
18893;SDS011;9579;49.488;8.226;2023-12-04T12:03:52;14.30;;;12.93;;
18893;SDS011;9579;49.488;8.226;2023-12-04T12:06:39;16.17;;;14.57;;
18893;SDS011;9579;49.488;8.226;2023-12-04T12:09:27;18.00;;;16.20;;
18893;SDS011;9579;49.488;8.226;2023-12-04T12:12:14;16.70;;;15.17;;
18893;SDS011;9579;49.488;8.226;2023-12-04T12:15:04;16.90;;;15.30;;
18893;SDS011;9579;49.488;8.226;2023-12-04T12:17:54;15.07;;;13.63;;
18893;SDS011;9579;49.488;8.226;2023-12-04T12:20:41;17.13;;;15.53;;
18893;SDS011;9579;49.488;8.226;2023-12-04T12:23:29;15.90;;;14.40;;
18893;SDS011;9579;49.488;8.226;2023-12-04T12:26:16;19.50;;;17.60;;
18893;SDS011;9579;49.488;8.226;2023-12-04T12:29:03;16.87;;;15.13;;
18893;SDS011;9579;49.488;8.226;2023-12-04T12:31:53;17.70;;;16.10;;
18893;SDS011;9579;49.488;8.226;2023-12-04T12:34:41;20.03;;;18.07;;
18893;SDS011;9579;49.488;8.226;2023-12-04T12:37:28;19.23;;;17.37;;
18893;SDS011;9579;49.488;8.226;2023-12-04T12:40:16;15.83;;;14.23;;
18893;SDS011;9579;49.488;8.226;2023-12-04T12:43:04;17.40;;;15.70;;
18893;SDS011;9579;49.488;8.226;2023-12-04T12:45:52;20.83;;;18.83;;
18893;SDS011;9579;49.488;8.226;2023-12-04T12:48:41;18.80;;;17.00;;
18893;SDS011;9579;49.488;8.226;2023-12-04T12:51:29;19.50;;;17.43;;
18893;SDS011;9579;49.488;8.226;2023-12-04T12:54:17;21.40;;;19.30;;
18893;SDS011;9579;49.488;8.226;2023-12-04T12:57:10;18.47;;;16.67;;
18893;SDS011;9579;49.488;8.226;2023-12-04T12:59:58;20.20;;;18.10;;
18893;SDS011;9579;49.488;8.226;2023-12-04T13:02:46;18.77;;;16.90;;
18893;SDS011;9579;49.488;8.226;2023-12-04T13:05:34;18.90;;;17.03;;
18893;SDS011;9579;49.488;8.226;2023-12-04T13:08:22;21.70;;;19.53;;
18893;SDS011;9579;49.488;8.226;2023-12-04T13:11:09;18.93;;;16.93;;
18893;SDS011;9579;49.488;8.226;2023-12-04T13:13:56;19.47;;;17.57;;
18893;SDS011;9579;49.488;8.226;2023-12-04T13:16:43;19.67;;;17.67;;
18893;SDS011;9579;49.488;8.226;2023-12-04T13:19:31;18.30;;;16.40;;
18893;SDS011;9579;49.488;8.226;2023-12-04T13:22:21;19.23;;;17.33;;
18893;SDS011;9579;49.488;8.226;2023-12-04T13:25:08;18.63;;;16.73;;
18893;SDS011;9579;49.488;8.226;2023-12-04T13:27:56;20.63;;;18.53;;
18893;SDS011;9579;49.488;8.226;2023-12-04T13:30:43;21.07;;;18.90;;
18893;SDS011;9579;49.488;8.226;2023-12-04T13:33:30;18.80;;;16.90;;
18893;SDS011;9579;49.488;8.226;2023-12-04T13:36:18;19.97;;;17.97;;
18893;SDS011;9579;49.488;8.226;2023-12-04T13:39:06;18.90;;;17.00;;
18893;SDS011;9579;49.488;8.226;2023-12-04T13:42:01;19.67;;;17.67;;
18893;SDS011;9579;49.488;8.226;2023-12-04T13:45:07;20.30;;;18.13;;
18893;SDS011;9579;49.488;8.226;2023-12-04T13:47:55;21.03;;;18.90;;
18893;SDS011;9579;49.488;8.226;2023-12-04T13:50:43;18.73;;;16.93;;
18893;SDS011;9579;49.488;8.226;2023-12-04T13:53:30;18.80;;;17.00;;
18893;SDS011;9579;49.488;8.226;2023-12-04T13:56:19;20.47;;;18.47;;
18893;SDS011;9579;49.488;8.226;2023-12-04T13:59:26;18.00;;;16.20;;
18893;SDS011;9579;49.488;8.226;2023-12-04T14:02:14;18.93;;;17.13;;
18893;SDS011;9579;49.488;8.226;2023-12-04T14:05:02;20.07;;;17.97;;
18893;SDS011;9579;49.488;8.226;2023-12-04T14:07:49;19.70;;;17.77;;
18893;SDS011;9579;49.488;8.226;2023-12-04T14:10:36;19.43;;;17.63;;
18893;SDS011;9579;49.488;8.226;2023-12-04T14:13:25;19.77;;;17.77;;
18893;SDS011;9579;49.488;8.226;2023-12-04T14:16:12;17.67;;;15.87;;
18893;SDS011;9579;49.488;8.226;2023-12-04T14:19:01;19.33;;;17.40;;
18893;SDS011;9579;49.488;8.226;2023-12-04T14:21:48;19.20;;;17.30;;
18893;SDS011;9579;49.488;8.226;2023-12-04T14:24:35;19.33;;;17.47;;
18893;SDS011;9579;49.488;8.226;2023-12-04T14:27:23;20.00;;;18.10;;
18893;SDS011;9579;49.488;8.226;2023-12-04T14:30:11;17.30;;;15.60;;
18893;SDS011;9579;49.488;8.226;2023-12-04T14:32:59;20.43;;;18.43;;
18893;SDS011;9579;49.488;8.226;2023-12-04T14:35:46;22.00;;;19.90;;
18893;SDS011;9579;49.488;8.226;2023-12-04T14:38:33;21.57;;;19.47;;
18893;SDS011;9579;49.488;8.226;2023-12-04T14:41:21;21.37;;;19.27;;
18893;SDS011;9579;49.488;8.226;2023-12-04T14:44:08;21.97;;;19.87;;
18893;SDS011;9579;49.488;8.226;2023-12-04T14:46:56;20.60;;;18.60;;
18893;SDS011;9579;49.488;8.226;2023-12-04T14:49:44;20.30;;;18.30;;
18893;SDS011;9579;49.488;8.226;2023-12-04T14:52:31;21.03;;;19.03;;
18893;SDS011;9579;49.488;8.226;2023-12-04T14:55:19;21.00;;;18.97;;
18893;SDS011;9579;49.488;8.226;2023-12-04T14:58:24;42.37;;;38.43;;
18893;SDS011;9579;49.488;8.226;2023-12-04T15:01:29;21.80;;;19.70;;
18893;SDS011;9579;49.488;8.226;2023-12-04T15:04:51;22.37;;;20.17;;
18893;SDS011;9579;49.488;8.226;2023-12-04T15:07:58;18.17;;;16.43;;
18893;SDS011;9579;49.488;8.226;2023-12-04T15:11:19;17.20;;;15.60;;
18893;SDS011;9579;49.488;8.226;2023-12-04T15:14:23;15.67;;;14.17;;
18893;SDS011;9579;49.488;8.226;2023-12-04T15:17:21;18.87;;;17.10;;
18893;SDS011;9579;49.488;8.226;2023-12-04T15:20:17;17.27;;;15.50;;
18893;SDS011;9579;49.488;8.226;2023-12-04T15:23:18;19.17;;;17.37;;
18893;SDS011;9579;49.488;8.226;2023-12-04T15:26:05;16.93;;;15.33;;
18893;SDS011;9579;49.488;8.226;2023-12-04T15:28:51;18.27;;;16.47;;
18893;SDS011;9579;49.488;8.226;2023-12-04T15:31:38;18.27;;;16.57;;
18893;SDS011;9579;49.488;8.226;2023-12-04T15:34:25;17.20;;;15.50;;
18893;SDS011;9579;49.488;8.226;2023-12-04T15:37:14;16.87;;;15.27;;
18893;SDS011;9579;49.488;8.226;2023-12-04T15:40:00;17.97;;;16.27;;
18893;SDS011;9579;49.488;8.226;2023-12-04T15:42:47;18.33;;;16.63;;
18893;SDS011;9579;49.488;8.226;2023-12-04T15:45:34;18.90;;;17.07;;
18893;SDS011;9579;49.488;8.226;2023-12-04T15:48:21;17.80;;;16.17;;
18893;SDS011;9579;49.488;8.226;2023-12-04T15:51:08;17.93;;;16.20;;
18893;SDS011;9579;49.488;8.226;2023-12-04T15:53:57;19.50;;;17.70;;
18893;SDS011;9579;49.488;8.226;2023-12-04T15:56:44;18.23;;;16.43;;
18893;SDS011;9579;49.488;8.226;2023-12-04T15:59:31;16.33;;;14.83;;
18893;SDS011;9579;49.488;8.226;2023-12-04T16:02:18;19.40;;;17.50;;
18893;SDS011;9579;49.488;8.226;2023-12-04T16:05:07;18.10;;;16.40;;
18893;SDS011;9579;49.488;8.226;2023-12-04T16:07:56;16.67;;;15.10;;
18893;SDS011;9579;49.488;8.226;2023-12-04T16:10:44;18.93;;;17.13;;
18893;SDS011;9579;49.488;8.226;2023-12-04T16:13:31;17.83;;;16.03;;
18893;SDS011;9579;49.488;8.226;2023-12-04T16:16:18;19.43;;;17.57;;
18893;SDS011;9579;49.488;8.226;2023-12-04T16:19:05;19.53;;;17.73;;
18893;SDS011;9579;49.488;8.226;2023-12-04T16:21:52;16.67;;;14.97;;
18893;SDS011;9579;49.488;8.226;2023-12-04T16:24:39;18.27;;;16.57;;
18893;SDS011;9579;49.488;8.226;2023-12-04T16:27:28;18.03;;;16.23;;
18893;SDS011;9579;49.488;8.226;2023-12-04T16:30:15;21.43;;;19.33;;
18893;SDS011;9579;49.488;8.226;2023-12-04T16:33:04;22.83;;;20.60;;
18893;SDS011;9579;49.488;8.226;2023-12-04T16:35:51;24.10;;;21.87;;
18893;SDS011;9579;49.488;8.226;2023-12-04T16:38:38;21.60;;;19.50;;
18893;SDS011;9579;49.488;8.226;2023-12-04T16:41:25;23.60;;;21.40;;